Crouseville, Maine
Current Conditions -  °F | °C
As of 2:54 PM on Sunday 25 Jan 2015 (Local Time) from KCAR Reporting Station
Overcast Overcast  
Wind Chill: -5°   Ceiling: 4000
Heat Index: 13°   Visibility: 10mi
Dew Point: -3°   Wind: 20mph
Humidity: 49%   Direction: 280°W
Pressure: 29.38"   Gusts: 32mph
Location:  46.75°N, 68.1°W
Report Text: KCAR 251954Z AUTO 28017G28KT 10SM OVC040 M11/M19 A2938 RMK AO2 PK WND 29028/1947 UPB05E12 SLP961 P0000 T11061194
Loading
Personal Weather Stations






























Interactive Weather Map New forecast layout! Learn more

10-Day Weather Forecast

Advertisements
Track Severe Weather on mobile